Maran Poseidon — SVAV3 — position and weather

sailwx.info

Track history (hours):
 
Tides and Currents Weather Stations Pressure Air Temp Water Temp Dewpoint Dewpoint Depression Visibility Wind Speed Wind Dir Waves Ship Positions

Maran Poseidon

Last reported at 2016-Jul-06 11:18 UTC. Time now 2016-Jul-29 21:40 UTC.
Position S 30°23' E 030°54'.
Warning: this ship's position is 23 days out of date.

Length 274 m; draft 12.5 m.

Type: Tanker. MMSI: 240959000.

Date/timePositionNaut miles runAvg speedWind from/ knotsBaromVisibWave heightAir tempDewpointWater temp
2016-Jul-06 11:18S 30°23' E 030°54'5 7.0
2016-Jul-06 10:33S 30°18' E 030°56'7 6.7
2016-Jul-06 09:33S 30°12' E 030°59'7 7.0
2016-Jul-06 08:33S 30°06' E 031°02'5 5.1
2016-Jul-06 07:33S 30°01' E 031°03'4 3.8
2016-Jul-06 06:33S 30°01' E 030°58'0 0.1
2016-Jul-06 05:33S 30°01' E 030°58'0 0.0
2016-Jul-06 04:33S 30°01' E 030°58'0 0.0
2016-Jul-06 03:33S 30°01' E 030°58'0 0.0
2016-Jul-06 02:33S 30°01' E 030°58'0 0.0
2016-Jul-06 01:33S 30°01' E 030°58'0 0.0
2016-Jul-06 00:33S 30°01' E 030°58'0 0.0
2016-Jul-05 23:33S 30°01' E 030°58'0 0.0
2016-Jul-05 22:33S 30°01' E 030°58'0 0.0
2016-Jul-05 21:33S 30°01' E 030°58'0 0.0
2016-Jul-05 20:33S 30°01' E 030°58'0 0.0
2016-Jul-05 19:33S 30°01' E 030°58'0 0.0
2016-Jul-05 18:33S 30°01' E 030°58'0 0.0
2016-Jul-05 17:33S 30°01' E 030°58'0 0.0
2016-Jul-05 16:33S 30°01' E 030°58'0 0.0
2016-Jul-05 15:33S 30°01' E 030°58'0 0.0
2016-Jul-05 14:33S 30°01' E 030°58'0 0.0
2016-Jul-05 13:33S 30°01' E 030°58'0 0.0
2016-Jul-05 12:33S 30°01' E 030°58'0 0.0
2016-Jul-05 11:33S 30°01' E 030°58'0 0.0
2016-Jul-05 10:33S 30°01' E 030°58'0 0.0
2016-Jul-05 09:33S 30°01' E 030°58'0 0.0
2016-Jul-05 08:33S 30°01' E 030°58'0 0.0
2016-Jul-05 07:33S 30°01' E 030°58'0 0.0
2016-Jul-05 06:33S 30°01' E 030°58'2 1.1
2016-Jul-05 04:33S 30°03' E 030°58'1 1.0
2016-Jul-05 03:32S 30°04' E 030°58'0 0.0
2016-Jul-05 02:32S 30°04' E 030°58'0 0.0
2016-Jul-05 01:32S 30°04' E 030°58'0 0.0
2016-Jul-05 00:32S 30°04' E 030°58'0 0.0
2016-Jul-04 23:32S 30°04' E 030°58'0 0.0
2016-Jul-04 22:32S 30°04' E 030°58'0 0.0
2016-Jul-04 21:32S 30°04' E 030°58'0 0.0
2016-Jul-04 20:32S 30°04' E 030°58'0 0.1
2016-Jul-04 19:32S 30°04' E 030°58'0 0.1
2016-Jul-04 18:32S 30°04' E 030°58'0 0.0
2016-Jul-04 17:32S 30°04' E 030°58'0 0.0
2016-Jul-04 16:32S 30°04' E 030°58'0 0.0
2016-Jul-04 15:32S 30°04' E 030°58'0 0.0
2016-Jul-04 14:32S 30°04' E 030°58'0 0.2
2016-Jul-04 13:34S 30°04' E 030°58'3 2.8
2016-Jul-04 12:34S 30°03' E 031°01'1 1.0
2016-Jul-04 11:34S 30°02' E 031°00'1 0.9
2016-Jul-04 10:34S 30°01' E 031°00'1 0.9
2016-Jul-04 09:33S 30°00' E 031°00'4 3.9
2016-Jul-04 08:34S 29°57' E 031°03'1313.0
2016-Jul-04 07:34S 29°46' E 031°11'2 1.8
2016-Jul-04 06:33S 29°45' E 031°12'0 0.0
2016-Jul-04 05:33S 29°45' E 031°12'0 0.0
2016-Jul-04 04:33S 29°45' E 031°12'0 0.0
2016-Jul-04 03:33S 29°45' E 031°12'0 0.1
2016-Jul-04 02:33S 29°45' E 031°12'0 0.0
2016-Jul-04 01:33S 29°45' E 031°12'0 0.0
2016-Jul-04 00:33S 29°45' E 031°12'0 0.0
2016-Jul-03 23:33S 29°45' E 031°12'0 0.1
2016-Jul-03 22:33S 29°45' E 031°12'0 0.0
2016-Jul-03 21:33S 29°45' E 031°12'0 0.0
2016-Jul-03 20:33S 29°45' E 031°12'0 0.0
2016-Jul-03 19:33S 29°45' E 031°12'0 0.0
2016-Jul-03 18:33S 29°45' E 031°12'0 0.0
2016-Jul-03 17:33S 29°45' E 031°12'0 0.0
2016-Jul-03 16:33S 29°45' E 031°12'0 0.0
2016-Jul-03 15:33S 29°45' E 031°12'0 0.0
2016-Jul-03 14:33S 29°45' E 031°12'0 0.1
2016-Jul-03 13:33S 29°45' E 031°12'0 0.0
2016-Jul-03 12:33S 29°45' E 031°12'0 0.0
2016-Jul-03 11:33S 29°45' E 031°12'0 0.0
2016-Jul-03 10:33S 29°45' E 031°12'0 0.0
2016-Jul-03 09:33S 29°45' E 031°12'0 0.0
2016-Jul-03 08:33S 29°44' E 031°12'0 0.0
2016-Jul-03 07:33S 29°44' E 031°12'0 0.0
2016-Jul-03 06:33S 29°44' E 031°12'0 0.0
2016-Jul-03 05:33S 29°45' E 031°12'0 0.0
2016-Jul-03 04:33S 29°44' E 031°12'0 0.0
2016-Jul-03 03:33S 29°44' E 031°12'0 0.0
2016-Jul-03 02:33S 29°45' E 031°12'0 0.1
2016-Jul-03 01:33S 29°44' E 031°12'0 0.0
2016-Jul-03 00:33S 29°44' E 031°12'0 0.0
2016-Jul-02 23:33S 29°44' E 031°12'0 0.0
2016-Jul-02 22:33S 29°44' E 031°12'0 0.0
2016-Jul-02 21:33S 29°44' E 031°12'0 0.0
2016-Jul-02 20:33S 29°44' E 031°12'0 0.0
2016-Jul-02 19:33S 29°44' E 031°12'0 0.0
2016-Jul-02 18:33S 29°44' E 031°12'0 0.0
2016-Jul-02 17:33S 29°44' E 031°12'0 0.0
2016-Jul-02 16:33S 29°44' E 031°12'0 0.0
2016-Jul-02 15:33S 29°44' E 031°12'0 0.0
2016-Jul-02 14:30S 29°44' E 031°12'0 0.0
2016-Jul-02 13:33S 29°44' E 031°12'0 0.0
2016-Jul-02 12:33S 29°44' E 031°12'0 0.0
2016-Jul-02 11:33S 29°44' E 031°12'0 0.0
2016-Jul-02 10:33S 29°44' E 031°12'0 0.0
2016-Jul-02 09:33S 29°44' E 031°12'0 0.0
2016-Jul-02 08:33S 29°44' E 031°12'0 0.0
2016-Jul-02 07:33S 29°44' E 031°12'0 0.0
2016-Jul-02 06:33S 29°44' E 031°12'0 0.0
2016-Jul-02 04:33S 29°44' E 031°12'0 0.0
2016-Jul-02 03:33S 29°44' E 031°12'0 0.0
2016-Jul-02 02:33S 29°44' E 031°12'0 0.0
2016-Jul-02 01:33S 29°44' E 031°12'0 0.0
2016-Jul-02 00:33S 29°44' E 031°12'0 0.0
2016-Jul-01 23:33S 29°44' E 031°12'0 0.0
2016-Jul-01 22:33S 29°44' E 031°12'0 0.1
2016-Jul-01 21:33S 29°44' E 031°12'0 0.0
2016-Jul-01 20:33S 29°44' E 031°12'0 0.0
2016-Jul-01 19:33S 29°44' E 031°12'0 0.0
2016-Jul-01 18:33S 29°44' E 031°12'0 0.0
2016-Jul-01 17:33S 29°44' E 031°12'0 0.1
2016-Jul-01 16:33S 29°45' E 031°12'0 0.3
2016-Jul-01 15:33S 29°45' E 031°12'0 0.0
2016-Jul-01 14:33S 29°45' E 031°12'0 0.0
2016-Jul-01 13:33S 29°45' E 031°12'0 0.0
2016-Jul-01 12:30S 29°45' E 031°12'0 0.0
2016-Jul-01 11:33S 29°45' E 031°12'0 0.0
2016-Jul-01 10:33S 29°45' E 031°12'0 0.0
2016-Jul-01 09:33S 29°45' E 031°12'0 0.0
2016-Jul-01 08:33S 29°45' E 031°12'0 0.1
2016-Jul-01 07:33S 29°45' E 031°12'0 0.0
2016-Jul-01 06:33S 29°45' E 031°12'0 0.0
2016-Jul-01 05:33S 29°45' E 031°12'0 0.0
2016-Jul-01 04:33S 29°45' E 031°12'0 0.0
2016-Jul-01 03:33S 29°45' E 031°12'0 0.0
2016-Jul-01 02:33S 29°45' E 031°12'0 0.0
2016-Jul-01 01:33S 29°45' E 031°12'0 0.0
2016-Jul-01 00:33S 29°45' E 031°12'0 0.0
2016-Jun-30 23:33S 29°45' E 031°12'0 0.0
2016-Jun-30 22:33S 29°45' E 031°12'0 0.0
2016-Jun-30 21:33S 29°45' E 031°12'0 0.0
2016-Jun-30 20:33S 29°45' E 031°12'0 0.0
2016-Jun-30 19:33S 29°45' E 031°12'0 0.1
2016-Jun-30 18:33S 29°45' E 031°12'0 0.0
2016-Jun-30 17:33S 29°45' E 031°12'0 0.0
2016-Jun-30 16:33S 29°45' E 031°12'0 0.0
2016-Jun-30 15:33S 29°45' E 031°12'0 0.0
2016-Jun-30 14:33S 29°45' E 031°12'0 0.1
2016-Jun-30 13:33S 29°45' E 031°12'0 0.0
2016-Jun-30 12:30S 29°45' E 031°12'0 0.0
2016-Jun-30 11:33S 29°45' E 031°12'0 0.0
2016-Jun-30 10:33S 29°45' E 031°12'0 0.0
2016-Jun-30 09:33S 29°45' E 031°12'0 0.1
2016-Jun-30 08:33S 29°45' E 031°12'0 0.1
2016-Jun-30 07:33S 29°45' E 031°12'0 0.0
2016-Jun-30 06:33S 29°45' E 031°12'0 0.0
2016-Jun-30 05:33S 29°45' E 031°12'0 0.0
2016-Jun-30 04:33S 29°45' E 031°12'0 0.0
2016-Jun-30 03:33S 29°45' E 031°12'0 0.1
2016-Jun-30 02:33S 29°45' E 031°12'0 0.2
2016-Jun-30 01:33S 29°45' E 031°12'0 0.1
2016-Jun-30 00:33S 29°45' E 031°12'0 0.1
2016-Jun-29 23:33S 29°45' E 031°12'0 0.0
2016-Jun-29 22:33S 29°45' E 031°12'0 0.0
2016-Jun-29 21:33S 29°45' E 031°12'0 0.0
2016-Jun-29 20:33S 29°45' E 031°12'0 0.0
2016-Jun-29 19:33S 29°45' E 031°12'0 0.0
2016-Jun-29 18:33S 29°45' E 031°12'0 0.0
2016-Jun-29 17:33S 29°45' E 031°12'0 0.0
2016-Jun-29 16:33S 29°45' E 031°12'0 0.0
2016-Jun-29 15:33S 29°45' E 031°12'0 0.0
2016-Jun-29 14:33S 29°45' E 031°12'0 0.0
2016-Jun-29 13:33S 29°45' E 031°12'0 0.0
2016-Jun-29 12:33S 29°45' E 031°12'0 0.0
2016-Jun-29 11:30S 29°45' E 031°12'0 0.1
2016-Jun-29 10:30S 29°45' E 031°12'0 0.0
2016-Jun-29 09:33S 29°45' E 031°12'0 0.0
2016-Jun-29 08:33S 29°45' E 031°12'0 0.0
2016-Jun-29 07:33S 29°45' E 031°12'0 0.0
2016-Jun-29 06:24S 29°45' E 031°12'0 0.0
2016-Jun-29 05:33S 29°45' E 031°12'0 0.0
2016-Jun-29 04:33S 29°45' E 031°12'0 0.0
2016-Jun-29 03:30S 29°45' E 031°12'0 0.0
2016-Jun-29 02:33S 29°45' E 031°12'0 0.0
2016-Jun-29 01:33S 29°45' E 031°12'0 0.0
2016-Jun-29 00:33S 29°44' E 031°12'0 0.0
2016-Jun-28 23:33S 29°45' E 031°12'0 0.0
2016-Jun-28 22:33S 29°45' E 031°12'0 0.0
2016-Jun-28 21:33S 29°45' E 031°12'0 0.0
2016-Jun-28 20:33S 29°45' E 031°12'0 0.0
2016-Jun-28 19:33S 29°45' E 031°12'0 0.0
2016-Jun-28 18:33S 29°45' E 031°12'0 0.0
2016-Jun-28 17:33S 29°44' E 031°12'0 0.0
2016-Jun-28 16:33S 29°45' E 031°12'0 0.0
2016-Jun-28 15:33S 29°44' E 031°12'0 0.0
2016-Jun-28 14:33S 29°44' E 031°12'0 0.0
2016-Jun-28 13:33S 29°44' E 031°12'0 0.0
2016-Jun-28 12:33S 29°44' E 031°12'0 0.1
2016-Jun-28 11:33S 29°45' E 031°12'0 0.1
2016-Jun-28 10:33S 29°45' E 031°12'0 0.0
2016-Jun-28 09:33S 29°45' E 031°12'0 0.0
2016-Jun-28 08:33S 29°45' E 031°12'0 0.0
2016-Jun-28 07:33S 29°45' E 031°12'0 0.0
2016-Jun-28 06:33S 29°45' E 031°12'0 0.0
2016-Jun-28 04:30S 29°45' E 031°12'0 0.0
2016-Jun-28 03:33S 29°45' E 031°12'0 0.0
2016-Jun-28 02:30S 29°45' E 031°12'0 0.0
2016-Jun-28 01:30S 29°45' E 031°12'0 0.0
2016-Jun-28 00:33S 29°45' E 031°12'0 0.0
2016-Jun-27 23:33S 29°45' E 031°12'0 0.1
2016-Jun-27 22:33S 29°45' E 031°12'0 0.0
2016-Jun-27 21:30S 29°45' E 031°12'0 0.0
2016-Jun-27 20:30S 29°45' E 031°12'0 0.0
2016-Jun-27 19:33S 29°45' E 031°12'0 0.0
2016-Jun-27 18:33S 29°45' E 031°12'0 0.0
2016-Jun-27 17:33S 29°45' E 031°12'0 0.1
2016-Jun-27 16:33S 29°45' E 031°12'0 0.0
2016-Jun-27 15:33S 29°45' E 031°12'0 0.0
2016-Jun-27 14:33S 29°45' E 031°12'0 0.1
2016-Jun-27 13:30S 29°45' E 031°12'0 0.0
2016-Jun-27 12:30S 29°45' E 031°12'0 0.0
2016-Jun-27 11:30S 29°45' E 031°12'0 0.0
2016-Jun-27 10:33S 29°45' E 031°12'0 0.0
2016-Jun-27 09:33S 29°45' E 031°12'0 0.1
2016-Jun-27 08:30S 29°45' E 031°12'3 2.9
2016-Jun-27 07:34S 29°46' E 031°09'1010.2
2016-Jun-27 06:33S 29°56' E 031°11'1212.3
2016-Jun-27 05:33S 30°08' E 031°12'1110.9
2016-Jun-27 04:33S 30°19' E 031°13'9 9.1
2016-Jun-27 03:33S 30°28' E 031°14'9 8.6
2016-Jun-27 02:33S 30°37' E 031°15'8 8.4
2016-Jun-27 01:33S 30°45' E 031°12'9 9.0
2016-Jun-27 00:33S 30°52' E 031°06'9 8.8
2016-Jun-26 23:33S 30°59' E 031°00'9 9.0
2016-Jun-26 22:33S 31°07' E 030°54'9 9.0
2016-Jun-26 21:33S 31°14' E 030°48'10 9.3
2016-Jun-26 20:27S 31°23' E 030°42'9 9.7
2016-Jun-26 19:33S 31°30' E 030°36'1010.5
2016-Jun-26 18:33S 31°38' E 030°29'  
Track history (hours):
 
Tides and Currents Weather Stations Pressure Air Temp Water Temp Dewpoint Dewpoint Depression Visibility Wind Speed Wind Dir Waves Ship Positions

Maran Poseidon

Last reported at 2016-Jul-06 11:18 UTC. Time now 2016-Jul-29 21:40 UTC.
Position S 30°23' E 030°54'.
Warning: this ship's position is 23 days out of date.

Length 274 m; draft 12.5 m.

Type: Tanker. MMSI: 240959000.

Date/timePositionNaut miles runAvg speedWind from/ knotsBaromVisibWave heightAir tempDewpointWater temp
2016-Jul-06 11:18S 30°23' E 030°54'5 7.0
2016-Jul-06 10:33S 30°18' E 030°56'7 6.7
2016-Jul-06 09:33S 30°12' E 030°59'7 7.0
2016-Jul-06 08:33S 30°06' E 031°02'5 5.1
2016-Jul-06 07:33S 30°01' E 031°03'4 3.8
2016-Jul-06 06:33S 30°01' E 030°58'0 0.1
2016-Jul-06 05:33S 30°01' E 030°58'0 0.0
2016-Jul-06 04:33S 30°01' E 030°58'0 0.0
2016-Jul-06 03:33S 30°01' E 030°58'0 0.0
2016-Jul-06 02:33S 30°01' E 030°58'0 0.0
2016-Jul-06 01:33S 30°01' E 030°58'0 0.0
2016-Jul-06 00:33S 30°01' E 030°58'0 0.0
2016-Jul-05 23:33S 30°01' E 030°58'0 0.0
2016-Jul-05 22:33S 30°01' E 030°58'0 0.0
2016-Jul-05 21:33S 30°01' E 030°58'0 0.0
2016-Jul-05 20:33S 30°01' E 030°58'0 0.0
2016-Jul-05 19:33S 30°01' E 030°58'0 0.0
2016-Jul-05 18:33S 30°01' E 030°58'0 0.0
2016-Jul-05 17:33S 30°01' E 030°58'0 0.0
2016-Jul-05 16:33S 30°01' E 030°58'0 0.0
2016-Jul-05 15:33S 30°01' E 030°58'0 0.0
2016-Jul-05 14:33S 30°01' E 030°58'0 0.0
2016-Jul-05 13:33S 30°01' E 030°58'0 0.0
2016-Jul-05 12:33S 30°01' E 030°58'0 0.0
2016-Jul-05 11:33S 30°01' E 030°58'0 0.0
2016-Jul-05 10:33S 30°01' E 030°58'0 0.0
2016-Jul-05 09:33S 30°01' E 030°58'0 0.0
2016-Jul-05 08:33S 30°01' E 030°58'0 0.0
2016-Jul-05 07:33S 30°01' E 030°58'0 0.0
2016-Jul-05 06:33S 30°01' E 030°58'2 1.1
2016-Jul-05 04:33S 30°03' E 030°58'1 1.0
2016-Jul-05 03:32S 30°04' E 030°58'0 0.0
2016-Jul-05 02:32S 30°04' E 030°58'0 0.0
2016-Jul-05 01:32S 30°04' E 030°58'0 0.0
2016-Jul-05 00:32S 30°04' E 030°58'0 0.0
2016-Jul-04 23:32S 30°04' E 030°58'0 0.0
2016-Jul-04 22:32S 30°04' E 030°58'0 0.0
2016-Jul-04 21:32S 30°04' E 030°58'0 0.0
2016-Jul-04 20:32S 30°04' E 030°58'0 0.1
2016-Jul-04 19:32S 30°04' E 030°58'0 0.1
2016-Jul-04 18:32S 30°04' E 030°58'0 0.0
2016-Jul-04 17:32S 30°04' E 030°58'0 0.0
2016-Jul-04 16:32S 30°04' E 030°58'0 0.0
2016-Jul-04 15:32S 30°04' E 030°58'0 0.0
2016-Jul-04 14:32S 30°04' E 030°58'0 0.2
2016-Jul-04 13:34S 30°04' E 030°58'3 2.8
2016-Jul-04 12:34S 30°03' E 031°01'1 1.0
2016-Jul-04 11:34S 30°02' E 031°00'1 0.9
2016-Jul-04 10:34S 30°01' E 031°00'1 0.9
2016-Jul-04 09:33S 30°00' E 031°00'4 3.9
2016-Jul-04 08:34S 29°57' E 031°03'1313.0
2016-Jul-04 07:34S 29°46' E 031°11'2 1.8
2016-Jul-04 06:33S 29°45' E 031°12'0 0.0
2016-Jul-04 05:33S 29°45' E 031°12'0 0.0
2016-Jul-04 04:33S 29°45' E 031°12'0 0.0
2016-Jul-04 03:33S 29°45' E 031°12'0 0.1
2016-Jul-04 02:33S 29°45' E 031°12'0 0.0
2016-Jul-04 01:33S 29°45' E 031°12'0 0.0
2016-Jul-04 00:33S 29°45' E 031°12'0 0.0
2016-Jul-03 23:33S 29°45' E 031°12'0 0.1
2016-Jul-03 22:33S 29°45' E 031°12'0 0.0
2016-Jul-03 21:33S 29°45' E 031°12'0 0.0
2016-Jul-03 20:33S 29°45' E 031°12'0 0.0
2016-Jul-03 19:33S 29°45' E 031°12'0 0.0
2016-Jul-03 18:33S 29°45' E 031°12'0 0.0
2016-Jul-03 17:33S 29°45' E 031°12'0 0.0
2016-Jul-03 16:33S 29°45' E 031°12'0 0.0
2016-Jul-03 15:33S 29°45' E 031°12'0 0.0
2016-Jul-03 14:33S 29°45' E 031°12'0 0.1
2016-Jul-03 13:33S 29°45' E 031°12'0 0.0
2016-Jul-03 12:33S 29°45' E 031°12'0 0.0
2016-Jul-03 11:33S 29°45' E 031°12'0 0.0
2016-Jul-03 10:33S 29°45' E 031°12'0 0.0
2016-Jul-03 09:33S 29°45' E 031°12'0 0.0
2016-Jul-03 08:33S 29°44' E 031°12'0 0.0
2016-Jul-03 07:33S 29°44' E 031°12'0 0.0
2016-Jul-03 06:33S 29°44' E 031°12'0 0.0
2016-Jul-03 05:33S 29°45' E 031°12'0 0.0
2016-Jul-03 04:33S 29°44' E 031°12'0 0.0
2016-Jul-03 03:33S 29°44' E 031°12'0 0.0
2016-Jul-03 02:33S 29°45' E 031°12'0 0.1
2016-Jul-03 01:33S 29°44' E 031°12'0 0.0
2016-Jul-03 00:33S 29°44' E 031°12'0 0.0
2016-Jul-02 23:33S 29°44' E 031°12'0 0.0
2016-Jul-02 22:33S 29°44' E 031°12'0 0.0
2016-Jul-02 21:33S 29°44' E 031°12'0 0.0
2016-Jul-02 20:33S 29°44' E 031°12'0 0.0
2016-Jul-02 19:33S 29°44' E 031°12'0 0.0
2016-Jul-02 18:33S 29°44' E 031°12'0 0.0
2016-Jul-02 17:33S 29°44' E 031°12'0 0.0
2016-Jul-02 16:33S 29°44' E 031°12'0 0.0
2016-Jul-02 15:33S 29°44' E 031°12'0 0.0
2016-Jul-02 14:30S 29°44' E 031°12'0 0.0
2016-Jul-02 13:33S 29°44' E 031°12'0 0.0
2016-Jul-02 12:33S 29°44' E 031°12'0 0.0
2016-Jul-02 11:33S 29°44' E 031°12'0 0.0
2016-Jul-02 10:33S 29°44' E 031°12'0 0.0
2016-Jul-02 09:33S 29°44' E 031°12'0 0.0
2016-Jul-02 08:33S 29°44' E 031°12'0 0.0
2016-Jul-02 07:33S 29°44' E 031°12'0 0.0
2016-Jul-02 06:33S 29°44' E 031°12'0 0.0
2016-Jul-02 04:33S 29°44' E 031°12'0 0.0
2016-Jul-02 03:33S 29°44' E 031°12'0 0.0
2016-Jul-02 02:33S 29°44' E 031°12'0 0.0
2016-Jul-02 01:33S 29°44' E 031°12'0 0.0
2016-Jul-02 00:33S 29°44' E 031°12'0 0.0
2016-Jul-01 23:33S 29°44' E 031°12'0 0.0
2016-Jul-01 22:33S 29°44' E 031°12'0 0.1
2016-Jul-01 21:33S 29°44' E 031°12'0 0.0
2016-Jul-01 20:33S 29°44' E 031°12'0 0.0
2016-Jul-01 19:33S 29°44' E 031°12'0 0.0
2016-Jul-01 18:33S 29°44' E 031°12'0 0.0
2016-Jul-01 17:33S 29°44' E 031°12'0 0.1
2016-Jul-01 16:33S 29°45' E 031°12'0 0.3
2016-Jul-01 15:33S 29°45' E 031°12'0 0.0
2016-Jul-01 14:33S 29°45' E 031°12'0 0.0
2016-Jul-01 13:33S 29°45' E 031°12'0 0.0
2016-Jul-01 12:30S 29°45' E 031°12'0 0.0
2016-Jul-01 11:33S 29°45' E 031°12'0 0.0
2016-Jul-01 10:33S 29°45' E 031°12'0 0.0
2016-Jul-01 09:33S 29°45' E 031°12'0 0.0
2016-Jul-01 08:33S 29°45' E 031°12'0 0.1
2016-Jul-01 07:33S 29°45' E 031°12'0 0.0
2016-Jul-01 06:33S 29°45' E 031°12'0 0.0
2016-Jul-01 05:33S 29°45' E 031°12'0 0.0
2016-Jul-01 04:33S 29°45' E 031°12'0 0.0
2016-Jul-01 03:33S 29°45' E 031°12'0 0.0
2016-Jul-01 02:33S 29°45' E 031°12'0 0.0
2016-Jul-01 01:33S 29°45' E 031°12'0 0.0
2016-Jul-01 00:33S 29°45' E 031°12'0 0.0
2016-Jun-30 23:33S 29°45' E 031°12'0 0.0
2016-Jun-30 22:33S 29°45' E 031°12'0 0.0
2016-Jun-30 21:33S 29°45' E 031°12'0 0.0
2016-Jun-30 20:33S 29°45' E 031°12'0 0.0
2016-Jun-30 19:33S 29°45' E 031°12'0 0.1
2016-Jun-30 18:33S 29°45' E 031°12'0 0.0
2016-Jun-30 17:33S 29°45' E 031°12'0 0.0
2016-Jun-30 16:33S 29°45' E 031°12'0 0.0
2016-Jun-30 15:33S 29°45' E 031°12'0 0.0
2016-Jun-30 14:33S 29°45' E 031°12'0 0.1
2016-Jun-30 13:33S 29°45' E 031°12'0 0.0
2016-Jun-30 12:30S 29°45' E 031°12'0 0.0
2016-Jun-30 11:33S 29°45' E 031°12'0 0.0
2016-Jun-30 10:33S 29°45' E 031°12'0 0.0
2016-Jun-30 09:33S 29°45' E 031°12'0 0.1
2016-Jun-30 08:33S 29°45' E 031°12'0 0.1
2016-Jun-30 07:33S 29°45' E 031°12'0 0.0
2016-Jun-30 06:33S 29°45' E 031°12'0 0.0
2016-Jun-30 05:33S 29°45' E 031°12'0 0.0
2016-Jun-30 04:33S 29°45' E 031°12'0 0.0
2016-Jun-30 03:33S 29°45' E 031°12'0 0.1
2016-Jun-30 02:33S 29°45' E 031°12'0 0.2
2016-Jun-30 01:33S 29°45' E 031°12'0 0.1
2016-Jun-30 00:33S 29°45' E 031°12'0 0.1
2016-Jun-29 23:33S 29°45' E 031°12'0 0.0
2016-Jun-29 22:33S 29°45' E 031°12'0 0.0
2016-Jun-29 21:33S 29°45' E 031°12'0 0.0
2016-Jun-29 20:33S 29°45' E 031°12'0 0.0
2016-Jun-29 19:33S 29°45' E 031°12'0 0.0
2016-Jun-29 18:33S 29°45' E 031°12'0 0.0
2016-Jun-29 17:33S 29°45' E 031°12'0 0.0
2016-Jun-29 16:33S 29°45' E 031°12'0 0.0
2016-Jun-29 15:33S 29°45' E 031°12'0 0.0
2016-Jun-29 14:33S 29°45' E 031°12'0 0.0
2016-Jun-29 13:33S 29°45' E 031°12'0 0.0
2016-Jun-29 12:33S 29°45' E 031°12'0 0.0
2016-Jun-29 11:30S 29°45' E 031°12'0 0.1
2016-Jun-29 10:30S 29°45' E 031°12'0 0.0
2016-Jun-29 09:33S 29°45' E 031°12'0 0.0
2016-Jun-29 08:33S 29°45' E 031°12'0 0.0
2016-Jun-29 07:33S 29°45' E 031°12'0 0.0
2016-Jun-29 06:24S 29°45' E 031°12'0 0.0
2016-Jun-29 05:33S 29°45' E 031°12'0 0.0
2016-Jun-29 04:33S 29°45' E 031°12'0 0.0
2016-Jun-29 03:30S 29°45' E 031°12'0 0.0
2016-Jun-29 02:33S 29°45' E 031°12'0 0.0
2016-Jun-29 01:33S 29°45' E 031°12'0 0.0
2016-Jun-29 00:33S 29°44' E 031°12'0 0.0
2016-Jun-28 23:33S 29°45' E 031°12'0 0.0
2016-Jun-28 22:33S 29°45' E 031°12'0 0.0
2016-Jun-28 21:33S 29°45' E 031°12'0 0.0
2016-Jun-28 20:33S 29°45' E 031°12'0 0.0
2016-Jun-28 19:33S 29°45' E 031°12'0 0.0
2016-Jun-28 18:33S 29°45' E 031°12'0 0.0
2016-Jun-28 17:33S 29°44' E 031°12'0 0.0
2016-Jun-28 16:33S 29°45' E 031°12'0 0.0
2016-Jun-28 15:33S 29°44' E 031°12'0 0.0
2016-Jun-28 14:33S 29°44' E 031°12'0 0.0
2016-Jun-28 13:33S 29°44' E 031°12'0 0.0
2016-Jun-28 12:33S 29°44' E 031°12'0 0.1
2016-Jun-28 11:33S 29°45' E 031°12'0 0.1
2016-Jun-28 10:33S 29°45' E 031°12'0 0.0
2016-Jun-28 09:33S 29°45' E 031°12'0 0.0
2016-Jun-28 08:33S 29°45' E 031°12'0 0.0
2016-Jun-28 07:33S 29°45' E 031°12'0 0.0
2016-Jun-28 06:33S 29°45' E 031°12'0 0.0
2016-Jun-28 04:30S 29°45' E 031°12'0 0.0
2016-Jun-28 03:33S 29°45' E 031°12'0 0.0
2016-Jun-28 02:30S 29°45' E 031°12'0 0.0
2016-Jun-28 01:30S 29°45' E 031°12'0 0.0
2016-Jun-28 00:33S 29°45' E 031°12'0 0.0
2016-Jun-27 23:33S 29°45' E 031°12'0 0.1
2016-Jun-27 22:33S 29°45' E 031°12'0 0.0
2016-Jun-27 21:30S 29°45' E 031°12'0 0.0
2016-Jun-27 20:30S 29°45' E 031°12'0 0.0
2016-Jun-27 19:33S 29°45' E 031°12'0 0.0
2016-Jun-27 18:33S 29°45' E 031°12'0 0.0
2016-Jun-27 17:33S 29°45' E 031°12'0 0.1
2016-Jun-27 16:33S 29°45' E 031°12'0 0.0
2016-Jun-27 15:33S 29°45' E 031°12'0 0.0
2016-Jun-27 14:33S 29°45' E 031°12'0 0.1
2016-Jun-27 13:30S 29°45' E 031°12'0 0.0
2016-Jun-27 12:30S 29°45' E 031°12'0 0.0
2016-Jun-27 11:30S 29°45' E 031°12'0 0.0
2016-Jun-27 10:33S 29°45' E 031°12'0 0.0
2016-Jun-27 09:33S 29°45' E 031°12'0 0.1
2016-Jun-27 08:30S 29°45' E 031°12'3 2.9
2016-Jun-27 07:34S 29°46' E 031°09'1010.2
2016-Jun-27 06:33S 29°56' E 031°11'1212.3
2016-Jun-27 05:33S 30°08' E 031°12'1110.9
2016-Jun-27 04:33S 30°19' E 031°13'9 9.1
2016-Jun-27 03:33S 30°28' E 031°14'9 8.6
2016-Jun-27 02:33S 30°37' E 031°15'8 8.4
2016-Jun-27 01:33S 30°45' E 031°12'9 9.0
2016-Jun-27 00:33S 30°52' E 031°06'9 8.8
2016-Jun-26 23:33S 30°59' E 031°00'9 9.0
2016-Jun-26 22:33S 31°07' E 030°54'9 9.0
2016-Jun-26 21:33S 31°14' E 030°48'10 9.3
2016-Jun-26 20:27S 31°23' E 030°42'9 9.7
2016-Jun-26 19:33S 31°30' E 030°36'1010.5
2016-Jun-26 18:33S 31°38' E 030°29'  

Dump ship's entire track history